Time;durP1;ratioP1;P1;durP2;ratioP2;P2;SDS_P1;SDS_P2;PMS_P1;PMS_P2;Temp;Humidity;BMP_temperature;BMP_pressure;BME280_temperature;BME280_humidity;BME280_pressure;Samples;Min_cycle;Max_cycle;Signal;HPM_P1;HPM_P2
2022/05/26 00:01:07;;;;;;;6.10;2.80;;;18.90;82.30;;;;;;5071516;28;20225;-58
2022/05/26 00:03:36;;;;;;;5.27;2.40;;;18.90;82.30;;;;;;5071495;28;20232;-57
2022/05/26 00:06:04;;;;;;;4.00;2.80;;;18.90;82.60;;;;;;5071683;28;20375;-58
2022/05/26 00:08:31;;;;;;;3.80;2.80;;;18.90;83.00;;;;;;5071630;28;20549;-58
2022/05/26 00:10:58;;;;;;;3.27;2.40;;;18.90;83.20;;;;;;5071485;28;20647;-57
2022/05/26 00:13:26;;;;;;;5.10;2.80;;;18.90;83.40;;;;;;5071264;28;20204;-58
2022/05/26 00:15:53;;;;;;;3.70;2.37;;;18.90;83.80;;;;;;5071441;28;20209;-58
2022/05/26 00:18:20;;;;;;;3.87;2.80;;;18.80;83.90;;;;;;5071182;28;20233;-58
2022/05/26 00:20:48;;;;;;;3.50;2.60;;;18.80;85.40;;;;;;5071238;28;20256;-58
2022/05/26 00:23:15;;;;;;;4.20;2.70;;;18.80;86.10;;;;;;5071293;28;20705;-57
2022/05/26 00:25:42;;;;;;;5.30;2.90;;;18.70;86.80;;;;;;5071190;28;20217;-57
2022/05/26 00:28:09;;;;;;;4.67;2.50;;;18.70;87.10;;;;;;5071418;28;20212;-57
2022/05/26 00:30:37;;;;;;;10.37;2.90;;;18.70;87.30;;;;;;5071593;28;20366;-58
2022/05/26 00:33:04;;;;;;;9.10;3.00;;;18.70;88.10;;;;;;5074755;28;20211;-57
2022/05/26 00:35:34;;;;;;;6.87;3.17;;;18.70;88.40;;;;;;5075388;28;20213;-57
2022/05/26 00:38:03;;;;;;;6.50;2.87;;;18.70;88.80;;;;;;5075172;28;20570;-57
2022/05/26 00:40:30;;;;;;;5.10;3.20;;;18.60;89.00;;;;;;5075252;28;20500;-59
2022/05/26 00:42:58;;;;;;;12.87;3.13;;;18.60;90.00;;;;;;5075067;28;20206;-56
2022/05/26 00:45:25;;;;;;;4.30;2.90;;;18.60;90.20;;;;;;5075275;28;20213;-58
2022/05/26 00:47:52;;;;;;;5.93;2.60;;;18.60;90.40;;;;;;5075092;28;20227;-58
2022/05/26 00:50:24;;;;;;;6.57;2.80;;;18.60;90.70;;;;;;5075122;28;20216;-59
2022/05/26 00:52:54;;;;;;;4.70;2.80;;;18.50;90.80;;;;;;5074909;28;20199;-58
2022/05/26 00:55:27;;;;;;;5.57;2.50;;;18.50;91.20;;;;;;5074623;28;20216;-58
2022/05/26 00:58:00;;;;;;;5.53;2.60;;;18.50;91.30;;;;;;5074431;28;20710;-57
2022/05/26 01:00:31;;;;;;;6.67;2.23;;;18.50;91.60;;;;;;5074748;28;20222;-57
2022/05/26 01:03:04;;;;;;;7.57;2.50;;;18.50;92.00;;;;;;5074625;28;20231;-58
2022/05/26 01:05:37;;;;;;;4.70;2.30;;;18.50;91.70;;;;;;5074801;28;20553;-57
2022/05/26 01:08:11;;;;;;;6.23;2.60;;;18.50;91.80;;;;;;5074594;28;20195;-60
2022/05/26 01:10:39;;;;;;;3.27;2.00;;;18.50;92.00;;;;;;5074353;28;20186;-59
2022/05/26 01:13:06;;;;;;;4.37;2.33;;;18.40;92.20;;;;;;5074480;28;20205;-58
2022/05/26 01:15:38;;;;;;;6.20;2.23;;;18.50;92.10;;;;;;5074522;28;20206;-58
2022/05/26 01:18:14;;;;;;;3.17;2.10;;;18.50;92.20;;;;;;5074425;28;20596;-58
2022/05/26 01:20:52;;;;;;;3.17;2.20;;;18.50;92.10;;;;;;5074436;28;20214;-58
2022/05/26 01:23:57;;;;;;;6.43;2.20;;;18.50;92.00;;;;;;5074378;28;20630;-58
2022/05/26 01:27:08;;;;;;;6.53;2.40;;;18.60;92.10;;;;;;5074393;28;20202;-56
2022/05/26 01:30:04;;;;;;;4.10;2.50;;;18.60;92.00;;;;;;5073988;28;20208;-58
2022/05/26 01:32:45;;;;;;;4.40;2.20;;;18.60;92.10;;;;;;5074207;28;20645;-59
2022/05/26 01:35:18;;;;;;;7.27;2.53;;;18.60;92.10;;;;;;5073887;28;20195;-57
2022/05/26 01:37:59;;;;;;;4.03;1.90;;;18.60;92.00;;;;;;5074135;28;20190;-58
2022/05/26 01:40:32;;;;;;;2.77;2.10;;;18.60;92.00;;;;;;5073797;28;20208;-57
2022/05/26 01:43:07;;;;;;;6.10;2.33;;;18.60;91.80;;;;;;5073339;28;20216;-58
2022/05/26 01:45:42;;;;;;;3.70;2.50;;;18.60;91.60;;;;;;5073655;28;20184;-57
2022/05/26 01:48:16;;;;;;;7.40;2.47;;;18.60;91.50;;;;;;5073699;28;20204;-58
2022/05/26 01:50:46;;;;;;;3.70;2.20;;;18.60;91.40;;;;;;5074021;28;20194;-58
2022/05/26 01:53:23;;;;;;;6.00;2.23;;;18.60;91.40;;;;;;5074091;28;20274;-57
2022/05/26 01:55:56;;;;;;;8.83;2.10;;;18.60;91.40;;;;;;5073754;28;20201;-58
2022/05/26 01:58:28;;;;;;;7.43;2.43;;;18.60;91.30;;;;;;5073308;28;20246;-58
2022/05/26 02:00:57;;;;;;;6.13;2.13;;;18.60;91.40;;;;;;5073643;28;20534;-59
2022/05/26 02:03:28;;;;;;;5.13;2.33;;;18.60;91.40;;;;;;5073333;28;20253;-58
2022/05/26 02:06:03;;;;;;;9.17;2.30;;;18.60;92.10;;;;;;5073538;28;20547;-58
2022/05/26 02:08:37;;;;;;;4.93;2.33;;;18.50;92.50;;;;;;5073638;28;20686;-58
2022/05/26 02:11:12;;;;;;;5.80;2.20;;;18.50;92.90;;;;;;5073223;28;20189;-59
2022/05/26 02:13:43;;;;;;;6.80;2.67;;;18.50;93.50;;;;;;5073225;28;20190;-58
2022/05/26 02:16:17;;;;;;;6.13;2.30;;;18.40;93.40;;;;;;5073299;28;20227;-57
2022/05/26 02:18:51;;;;;;;4.17;2.33;;;18.40;93.20;;;;;;5073359;28;20326;-57
2022/05/26 02:21:24;;;;;;;5.67;2.30;;;18.40;93.30;;;;;;5073396;28;20224;-57
2022/05/26 02:23:55;;;;;;;7.43;2.20;;;18.40;93.20;;;;;;5073130;28;20195;-57
2022/05/26 02:26:22;;;;;;;6.40;2.80;;;18.40;93.10;;;;;;5073032;28;20196;-58
2022/05/26 02:31:34;;;;;;;6.40;2.00;;;18.30;92.80;;;;;;5072908;28;20183;-57
2022/05/26 02:34:03;;;;;;;6.07;2.30;;;18.20;93.10;;;;;;5072536;28;20215;-57
2022/05/26 02:36:33;;;;;;;5.77;2.33;;;18.20;92.90;;;;;;5073123;28;20201;-59
2022/05/26 02:39:00;;;;;;;4.03;2.03;;;18.20;93.20;;;;;;5073117;28;20652;-57
2022/05/26 02:41:29;;;;;;;3.83;2.37;;;18.20;93.60;;;;;;5073099;28;20235;-58
2022/05/26 02:43:56;;;;;;;3.93;2.30;;;18.10;94.60;;;;;;5072747;28;20752;-58
2022/05/26 02:46:31;;;;;;;4.53;2.73;;;18.10;95.50;;;;;;5073010;28;20674;-58
2022/05/26 02:49:18;;;;;;;3.03;2.30;;;18.00;96.20;;;;;;5072517;28;20185;-58
2022/05/26 02:51:53;;;;;;;4.50;2.50;;;17.90;96.70;;;;;;5072622;28;20524;-58
2022/05/26 02:54:27;;;;;;;5.20;2.60;;;17.80;97.20;;;;;;5072775;28;20188;-58
2022/05/26 02:57:09;;;;;;;5.97;2.50;;;17.80;97.60;;;;;;5072325;28;20566;-57
2022/05/26 02:59:53;;;;;;;7.40;4.07;;;17.70;98.80;;;;;;5072301;28;20550;-57
2022/05/26 03:02:25;;;;;;;3.47;2.60;;;17.70;98.80;;;;;;5072269;28;20240;-59
2022/05/26 03:05:02;;;;;;;7.33;2.50;;;17.60;99.10;;;;;;5072229;28;20191;-59
2022/05/26 03:07:31;;;;;;;4.50;2.50;;;17.60;99.50;;;;;;5072034;28;20185;-59
2022/05/26 03:09:58;;;;;;;5.03;2.43;;;17.60;99.90;;;;;;5072161;28;20572;-58
2022/05/26 03:12:28;;;;;;;8.47;3.63;;;17.50;99.90;;;;;;5071912;28;20640;-59
2022/05/26 03:14:55;;;;;;;11.07;3.57;;;17.40;99.90;;;;;;5072072;28;20189;-57
2022/05/26 03:17:22;;;;;;;10.43;3.50;;;17.30;99.90;;;;;;5072136;28;20207;-59
2022/05/26 03:19:49;;;;;;;6.10;3.17;;;17.20;99.90;;;;;;5071973;28;20207;-57
2022/05/26 03:22:18;;;;;;;4.50;3.00;;;17.10;99.90;;;;;;5072085;28;20224;-57
2022/05/26 03:24:45;;;;;;;6.53;3.23;;;17.10;99.90;;;;;;5071728;28;20209;-59
2022/05/26 03:27:12;;;;;;;4.97;3.27;;;16.90;99.90;;;;;;5072109;28;20348;-59
2022/05/26 03:29:39;;;;;;;6.93;3.00;;;16.80;99.90;;;;;;5071915;28;20606;-58
2022/05/26 03:32:07;;;;;;;5.53;2.87;;;16.70;99.90;;;;;;5071627;28;20202;-56
2022/05/26 03:42:50;;;;;;;7.10;3.53;;;16.40;99.90;;;;;;5071389;28;20212;-58
2022/05/26 03:45:21;;;;;;;7.80;3.50;;;16.30;99.90;;;;;;5071436;28;20219;-59
2022/05/26 03:47:48;;;;;;;7.77;3.43;;;16.20;99.90;;;;;;5071473;28;20188;-58
2022/05/26 03:50:15;;;;;;;5.17;3.17;;;16.10;99.90;;;;;;5071801;28;20577;-57
2022/05/26 03:52:43;;;;;;;8.17;4.10;;;16.00;99.90;;;;;;5071683;28;20337;-57
2022/05/26 03:55:10;;;;;;;5.20;3.70;;;15.90;99.90;;;;;;5071384;28;20220;-58
2022/05/26 03:57:36;;;;;;;9.47;4.03;;;15.80;99.90;;;;;;5071275;28;20236;-56
2022/05/26 04:00:05;;;;;;;5.20;3.60;;;15.80;99.90;;;;;;5071726;28;20223;-57
2022/05/26 04:02:35;;;;;;;7.00;3.80;;;15.70;99.90;;;;;;5071213;28;20229;-59
2022/05/26 04:05:01;;;;;;;8.43;3.80;;;15.60;99.90;;;;;;5071543;28;20204;-57
2022/05/26 04:07:28;;;;;;;6.93;3.50;;;15.60;99.90;;;;;;5071042;28;20205;-56
2022/05/26 04:09:56;;;;;;;7.93;3.80;;;15.60;99.90;;;;;;5071565;28;20561;-58
2022/05/26 04:12:23;;;;;;;10.37;4.10;;;15.60;99.90;;;;;;5071571;28;20290;-57
2022/05/26 04:14:50;;;;;;;6.57;3.50;;;15.60;99.90;;;;;;5071423;28;20228;-57
2022/05/26 04:17:16;;;;;;;11.23;4.37;;;15.60;99.90;;;;;;5071556;28;20535;-57
2022/05/26 04:19:43;;;;;;;7.77;4.40;;;15.50;99.90;;;;;;5071416;28;20215;-57
2022/05/26 04:22:17;;;;;;;5.60;3.83;;;15.50;99.90;;;;;;5071379;28;20220;-57
2022/05/26 04:24:45;;;;;;;10.13;3.83;;;15.40;99.90;;;;;;5071401;28;20193;-57
2022/05/26 04:27:13;;;;;;;8.43;4.03;;;15.40;99.90;;;;;;5071214;28;20205;-56
2022/05/26 04:29:40;;;;;;;8.83;4.53;;;15.40;99.90;;;;;;5071063;28;20211;-57
2022/05/26 04:32:08;;;;;;;8.73;5.20;;;15.30;99.90;;;;;;5071383;28;20212;-57
2022/05/26 04:34:35;;;;;;;6.30;3.97;;;15.30;99.90;;;;;;5070922;28;20208;-58
2022/05/26 04:37:02;;;;;;;5.83;3.73;;;15.20;99.90;;;;;;5071020;28;20304;-58
2022/05/26 04:39:29;;;;;;;7.33;3.97;;;15.20;99.90;;;;;;5071108;28;20228;-57
2022/05/26 04:41:59;;;;;;;8.93;4.37;;;15.10;99.90;;;;;;5071181;28;20715;-57
2022/05/26 04:44:30;;;;;;;7.03;3.77;;;15.10;99.90;;;;;;5071069;28;20242;-56
2022/05/26 04:46:57;;;;;;;10.30;4.20;;;15.10;99.90;;;;;;5070919;28;20211;-57
2022/05/26 04:49:24;;;;;;;7.13;4.03;;;15.10;99.90;;;;;;5071097;28;20667;-57
2022/05/26 04:51:51;;;;;;;8.63;4.30;;;15.10;99.90;;;;;;5071019;28;20564;-57
2022/05/26 04:54:18;;;;;;;6.63;4.03;;;15.10;99.90;;;;;;5071059;28;20208;-59
2022/05/26 04:56:45;;;;;;;8.27;4.27;;;15.10;99.90;;;;;;5071031;28;20251;-58
2022/05/26 04:59:12;;;;;;;7.30;4.43;;;15.00;99.90;;;;;;5071105;28;20196;-57
2022/05/26 05:01:41;;;;;;;7.37;4.77;;;15.00;99.90;;;;;;5070753;28;20829;-57
2022/05/26 05:04:08;;;;;;;5.70;4.40;;;15.00;99.90;;;;;;5071025;28;20687;-59
2022/05/26 05:06:35;;;;;;;7.03;4.23;;;15.00;99.90;;;;;;5070940;28;20296;-56
2022/05/26 05:09:03;;;;;;;7.87;4.17;;;15.00;99.90;;;;;;5071076;28;20212;-57
2022/05/26 05:11:30;;;;;;;6.93;3.80;;;14.90;99.90;;;;;;5070795;28;20307;-57
2022/05/26 05:13:56;;;;;;;5.97;3.70;;;14.90;99.90;;;;;;5070740;28;20212;-58
2022/05/26 05:16:27;;;;;;;7.80;4.40;;;14.90;99.90;;;;;;5070786;28;20204;-57
2022/05/26 05:18:57;;;;;;;6.57;4.40;;;14.90;99.90;;;;;;5072186;28;20189;-58
2022/05/26 05:21:26;;;;;;;7.33;4.23;;;14.90;99.90;;;;;;5074199;28;20240;-57
2022/05/26 05:24:00;;;;;;;8.50;4.70;;;14.90;99.90;;;;;;5074382;28;20647;-58
2022/05/26 05:26:31;;;;;;;10.07;4.23;;;14.90;99.90;;;;;;5073995;28;20189;-59
2022/05/26 05:29:02;;;;;;;10.33;4.50;;;15.00;99.90;;;;;;5073999;28;20196;-57
2022/05/26 05:31:35;;;;;;;9.30;4.60;;;14.90;99.90;;;;;;5074137;28;20646;-56
2022/05/26 05:34:07;;;;;;;12.13;5.20;;;14.90;99.90;;;;;;5074311;28;20318;-57
2022/05/26 05:36:36;;;;;;;7.93;5.07;;;14.90;99.90;;;;;;5073904;28;20199;-57
2022/05/26 05:39:04;;;;;;;9.03;5.07;;;14.90;99.90;;;;;;5074291;28;20566;-57
2022/05/26 05:41:34;;;;;;;8.53;5.33;;;14.90;99.90;;;;;;5073604;28;20224;-59
2022/05/26 05:44:01;;;;;;;9.57;5.73;;;14.90;99.90;;;;;;5073837;28;20262;-60
2022/05/26 05:46:34;;;;;;;7.63;4.77;;;15.00;99.90;;;;;;5074232;28;20204;-57
2022/05/26 05:49:04;;;;;;;8.30;4.80;;;15.00;99.90;;;;;;5073834;28;20654;-58
2022/05/26 05:51:32;;;;;;;7.17;4.90;;;15.00;99.90;;;;;;5073738;28;20254;-58
2022/05/26 05:53:59;;;;;;;7.27;5.07;;;15.00;99.90;;;;;;5073919;28;20205;-58
2022/05/26 05:56:26;;;;;;;9.13;5.40;;;15.00;99.90;;;;;;5073764;28;20212;-58
2022/05/26 05:58:53;;;;;;;7.10;4.83;;;15.00;99.90;;;;;;5073179;28;20240;-57
2022/05/26 06:01:20;;;;;;;5.50;4.50;;;15.00;99.90;;;;;;5073250;28;20225;-59
2022/05/26 06:03:47;;;;;;;4.70;3.40;;;15.00;99.90;;;;;;5073634;28;20212;-58
2022/05/26 06:06:15;;;;;;;3.90;2.73;;;15.00;99.90;;;;;;5073456;28;20205;-58
2022/05/26 06:08:42;;;;;;;2.90;2.60;;;14.90;99.90;;;;;;5073270;28;20391;-59
2022/05/26 06:11:09;;;;;;;5.80;2.67;;;14.90;99.90;;;;;;5073204;28;20209;-59
2022/05/26 06:13:36;;;;;;;3.30;2.73;;;14.90;99.90;;;;;;5073453;28;20207;-57
2022/05/26 06:16:03;;;;;;;4.17;2.40;;;14.80;99.90;;;;;;5073434;28;20201;-59
2022/05/26 06:18:32;;;;;;;6.47;2.40;;;14.80;99.90;;;;;;5073445;28;20539;-58
2022/05/26 06:21:03;;;;;;;3.10;2.50;;;14.80;99.90;;;;;;5073477;28;20666;-58
2022/05/26 06:23:31;;;;;;;3.33;2.23;;;14.80;99.90;;;;;;5073060;28;20801;-58
2022/05/26 06:25:58;;;;;;;2.20;2.00;;;14.80;99.90;;;;;;5072869;28;20216;-59
2022/05/26 06:31:10;;;;;;;3.33;2.40;;;14.80;99.90;;;;;;5072380;28;20192;-60
2022/05/26 06:39:07;;;;;;;2.87;2.00;;;14.80;99.90;;;;;;5072760;28;20214;-58
2022/05/26 06:44:19;;;;;;;1.90;1.70;;;14.70;99.90;;;;;;5072625;28;20278;-58
2022/05/26 06:46:46;;;;;;;2.13;1.73;;;14.60;99.90;;;;;;5072722;28;20204;-58
2022/05/26 06:49:13;;;;;;;3.37;1.90;;;14.60;99.90;;;;;;5072575;28;20207;-57
2022/05/26 06:51:43;;;;;;;3.17;2.10;;;14.60;99.90;;;;;;5072841;28;20204;-58
2022/05/26 06:54:11;;;;;;;3.43;2.10;;;14.50;99.90;;;;;;5072494;28;20232;-58
2022/05/26 06:56:39;;;;;;;3.60;2.33;;;14.40;99.90;;;;;;5072518;28;20208;-57
2022/05/26 06:59:05;;;;;;;2.90;2.10;;;14.30;99.90;;;;;;5072186;28;20571;-58
2022/05/26 07:01:32;;;;;;;2.10;1.90;;;14.30;99.90;;;;;;5072411;28;20229;-59
2022/05/26 07:03:59;;;;;;;2.80;2.13;;;14.30;99.90;;;;;;5072502;28;20211;-57
2022/05/26 07:06:28;;;;;;;2.00;1.80;;;14.30;99.90;;;;;;5072294;28;20200;-58
2022/05/26 07:08:55;;;;;;;2.37;2.10;;;14.30;99.90;;;;;;5072211;28;20211;-59
2022/05/26 07:11:24;;;;;;;2.30;2.10;;;14.30;99.90;;;;;;5071896;28;20211;-57
2022/05/26 07:13:51;;;;;;;2.37;2.10;;;14.30;99.90;;;;;;5071845;28;20201;-61
2022/05/26 07:16:18;;;;;;;1.90;1.80;;;14.30;99.90;;;;;;5072072;28;20308;-57
2022/05/26 07:18:46;;;;;;;3.10;2.17;;;14.40;99.90;;;;;;5072020;28;20204;-59
2022/05/26 07:21:13;;;;;;;2.50;2.30;;;14.30;99.90;;;;;;5072132;28;20204;-56
2022/05/26 07:23:41;;;;;;;5.83;3.73;;;14.40;99.90;;;;;;5071795;28;20227;-58
2022/05/26 07:26:09;;;;;;;3.60;2.40;;;14.40;99.90;;;;;;5071854;28;20290;-58
2022/05/26 07:28:40;;;;;;;2.87;2.20;;;14.40;99.90;;;;;;5071768;28;20215;-58
2022/05/26 07:31:07;;;;;;;3.73;2.20;;;14.40;99.90;;;;;;5072081;28;20651;-57
2022/05/26 07:33:34;;;;;;;2.90;2.40;;;14.40;99.90;;;;;;5072163;28;20208;-57
2022/05/26 07:36:01;;;;;;;2.70;2.20;;;14.40;99.90;;;;;;5071610;28;20208;-59
2022/05/26 07:41:18;;;;;;;2.33;2.07;;;14.40;99.90;;;;;;5070974;28;20204;-59
2022/05/26 07:43:52;;;;;;;6.47;2.50;;;14.50;99.90;;;;;;5071601;28;20209;-61
2022/05/26 07:46:20;;;;;;;2.37;2.10;;;14.50;99.90;;;;;;5071562;28;20189;-58
2022/05/26 07:48:47;;;;;;;2.63;2.30;;;14.50;99.90;;;;;;5071768;28;20213;-58
2022/05/26 07:51:14;;;;;;;3.53;2.20;;;14.60;99.90;;;;;;5071563;28;20200;-57
2022/05/26 07:53:41;;;;;;;2.57;2.30;;;14.70;99.90;;;;;;5071469;28;20212;-58
2022/05/26 07:56:09;;;;;;;3.37;2.40;;;14.80;99.90;;;;;;5071310;28;20205;-58
2022/05/26 07:58:36;;;;;;;3.10;2.10;;;14.90;99.90;;;;;;5071422;28;20327;-58
2022/05/26 08:01:05;;;;;;;3.03;2.37;;;15.00;99.90;;;;;;5071374;28;20220;-58
2022/05/26 08:03:33;;;;;;;4.07;2.20;;;15.10;99.90;;;;;;5071704;28;20708;-59
2022/05/26 08:06:00;;;;;;;2.20;1.93;;;15.10;99.90;;;;;;5071209;28;20215;-57
2022/05/26 08:08:27;;;;;;;3.47;2.10;;;15.20;99.90;;;;;;5071599;28;20207;-58
2022/05/26 08:10:54;;;;;;;3.47;2.10;;;15.30;99.90;;;;;;5071612;28;20208;-57
2022/05/26 08:13:20;;;;;;;2.93;1.90;;;15.40;99.90;;;;;;5071503;28;20205;-58
2022/05/26 08:15:49;;;;;;;2.30;2.00;;;15.40;99.90;;;;;;5071232;28;20205;-59
2022/05/26 08:18:17;;;;;;;3.13;2.13;;;15.40;99.90;;;;;;5071474;28;20299;-57
2022/05/26 08:20:44;;;;;;;3.20;1.90;;;15.50;99.90;;;;;;5071431;28;20201;-58
2022/05/26 08:23:12;;;;;;;2.80;1.70;;;15.60;99.90;;;;;;5071001;28;20558;-59
2022/05/26 08:25:39;;;;;;;3.03;1.60;;;15.70;99.90;;;;;;5071354;28;20239;-58
2022/05/26 08:28:07;;;;;;;2.27;1.67;;;15.80;99.90;;;;;;5071350;28;20655;-60
2022/05/26 08:30:34;;;;;;;3.00;1.60;;;16.00;99.90;;;;;;5071332;28;20209;-58
2022/05/26 08:33:01;;;;;;;1.70;1.60;;;16.10;99.90;;;;;;5070989;28;20219;-58
2022/05/26 08:35:29;;;;;;;1.53;1.43;;;16.20;99.90;;;;;;5071435;28;20206;-57
2022/05/26 08:37:55;;;;;;;7.40;1.87;;;16.30;99.90;;;;;;5071018;28;20209;-58
2022/05/26 08:40:33;;;;;;;2.47;1.70;;;16.30;99.90;;;;;;5071250;28;20685;-58
2022/05/26 08:43:03;;;;;;;1.80;1.70;;;16.40;99.90;;;;;;5070852;28;20326;-59
2022/05/26 08:45:32;;;;;;;2.33;1.60;;;16.50;99.90;;;;;;5071263;28;20224;-58
2022/05/26 08:48:00;;;;;;;1.67;1.50;;;16.60;99.90;;;;;;5070984;28;20209;-60
2022/05/26 08:50:31;;;;;;;3.73;1.83;;;16.70;99.90;;;;;;5071064;28;20221;-59
2022/05/26 08:53:02;;;;;;;4.27;1.60;;;16.70;99.90;;;;;;5072681;28;20286;-56
2022/05/26 08:55:32;;;;;;;1.57;1.47;;;16.90;99.90;;;;;;5074568;28;20196;-59
2022/05/26 08:58:06;;;;;;;1.90;1.70;;;16.90;99.90;;;;;;5074335;28;20454;-57
2022/05/26 09:00:34;;;;;;;2.30;1.60;;;17.00;99.90;;;;;;5074829;28;20668;-58
2022/05/26 09:03:01;;;;;;;3.17;1.47;;;17.00;99.90;;;;;;5074560;28;20710;-58
2022/05/26 09:05:36;;;;;;;1.73;1.47;;;17.00;99.90;;;;;;5074677;28;20205;-59
2022/05/26 09:13:38;;;;;;;3.23;1.57;;;17.30;99.90;;;;;;5074345;28;20299;-58
2022/05/26 09:16:07;;;;;;;3.37;1.50;;;17.40;99.90;;;;;;5074451;28;20201;-57
2022/05/26 09:18:34;;;;;;;2.47;1.50;;;17.60;99.90;;;;;;5074107;28;20209;-59
2022/05/26 09:21:18;;;;;;;3.27;1.30;;;17.70;99.90;;;;;;5074429;28;20205;-58
2022/05/26 09:23:46;;;;;;;14.57;1.40;;;17.80;99.90;;;;;;5074467;28;20235;-57
2022/05/26 09:26:17;;;;;;;2.23;1.30;;;17.90;99.90;;;;;;5074093;28;20204;-59
2022/05/26 09:28:48;;;;;;;4.80;1.87;;;18.00;99.90;;;;;;5073921;28;20205;-58
2022/05/26 09:31:32;;;;;;;3.03;1.40;;;18.00;99.90;;;;;;5074452;28;20208;-59
2022/05/26 09:34:07;;;;;;;2.13;1.40;;;18.20;99.90;;;;;;5073825;28;20228;-58
2022/05/26 09:36:43;;;;;;;2.23;1.50;;;18.20;99.90;;;;;;5074348;28;20193;-58
2022/05/26 09:39:11;;;;;;;5.70;1.40;;;18.20;99.90;;;;;;5074222;28;20551;-59
2022/05/26 09:41:39;;;;;;;2.03;1.53;;;18.20;99.90;;;;;;5073893;28;20201;-58
2022/05/26 09:44:34;;;;;;;1.53;1.27;;;18.30;99.90;;;;;;5074022;28;20585;-57
2022/05/26 09:47:05;;;;;;;2.40;1.50;;;18.30;99.90;;;;;;5071450;28;20212;-59
2022/05/26 09:49:38;;;;;;;1.40;1.30;;;18.30;99.90;;;;;;5074015;28;20198;-60
2022/05/26 09:52:16;;;;;;;2.20;1.57;;;18.40;99.90;;;;;;5073897;28;20297;-59
2022/05/26 09:54:44;;;;;;;2.03;1.60;;;18.60;99.90;;;;;;5073391;28;20629;-58
2022/05/26 09:57:18;;;;;;;3.30;1.60;;;18.70;99.90;;;;;;5073154;28;20214;-59
2022/05/26 09:59:45;;;;;;;7.97;1.50;;;18.80;99.90;;;;;;5073384;28;20569;-58
2022/05/26 10:02:16;;;;;;;1.77;1.33;;;19.00;99.90;;;;;;5073314;28;20611;-59
2022/05/26 10:04:54;;;;;;;2.67;1.30;;;19.10;99.90;;;;;;5072795;28;20219;-60
2022/05/26 10:07:29;;;;;;;1.63;1.10;;;19.20;99.90;;;;;;5073268;28;20194;-61
2022/05/26 10:10:06;;;;;;;1.83;1.27;;;19.20;99.90;;;;;;5073142;28;20194;-59
2022/05/26 10:12:44;;;;;;;1.90;1.30;;;19.20;99.90;;;;;;5073635;28;20537;-60
2022/05/26 10:15:25;;;;;;;1.47;1.27;;;19.20;99.90;;;;;;5073493;28;20284;-60
2022/05/26 10:18:07;;;;;;;1.77;1.30;;;19.20;99.90;;;;;;5073454;28;20199;-60
2022/05/26 10:20:46;;;;;;;1.50;1.40;;;19.30;99.90;;;;;;5073240;28;20196;-59
2022/05/26 10:23:39;;;;;;;2.67;1.50;;;19.40;99.90;;;;;;5073101;28;20228;-61
2022/05/26 10:26:17;;;;;;;3.47;1.47;;;19.40;99.90;;;;;;5073182;28;20215;-63
2022/05/26 10:29:14;;;;;;;5.20;1.20;;;19.40;99.90;;;;;;5072929;28;20191;-58
2022/05/26 10:31:54;;;;;;;3.20;1.43;;;19.40;99.90;;;;;;5067882;28;20581;-59
2022/05/26 10:34:55;;;;;;;2.33;1.33;;;19.30;99.90;;;;;;5072922;28;20628;-58
2022/05/26 10:37:34;;;;;;;2.83;1.40;;;19.30;99.90;;;;;;5061917;28;20202;-60
2022/05/26 10:40:24;;;;;;;1.40;1.30;;;19.20;99.90;;;;;;5072917;28;20199;-60
2022/05/26 10:42:56;;;;;;;3.63;1.30;;;19.20;99.90;;;;;;5070457;28;20272;-60
2022/05/26 10:45:27;;;;;;;2.10;1.17;;;19.20;99.90;;;;;;5072999;28;20654;-59
2022/05/26 10:48:00;;;;;;;2.50;1.40;;;19.30;99.90;;;;;;5072804;28;20195;-58
2022/05/26 10:50:31;;;;;;;3.90;1.40;;;19.50;99.90;;;;;;5072704;28;20185;-60
2022/05/26 10:53:03;;;;;;;4.03;1.20;;;19.70;99.90;;;;;;5072739;28;20192;-59
2022/05/26 10:55:38;;;;;;;3.27;1.20;;;19.80;99.90;;;;;;5072925;28;20189;-61
2022/05/26 10:58:09;;;;;;;5.30;1.57;;;19.90;99.90;;;;;;5072658;28;20779;-58
2022/05/26 11:00:36;;;;;;;13.73;1.53;;;19.90;99.90;;;;;;5072867;28;20235;-59
2022/05/26 11:03:10;;;;;;;2.07;1.17;;;19.90;99.90;;;;;;5072424;28;20225;-58
2022/05/26 11:05:40;;;;;;;4.20;1.50;;;19.80;99.90;;;;;;5072538;28;20192;-58
2022/05/26 11:08:21;;;;;;;2.73;1.30;;;19.80;99.90;;;;;;5072688;28;20193;-59
2022/05/26 11:10:54;;;;;;;2.50;1.50;;;19.90;99.90;;;;;;5072304;28;20196;-59
2022/05/26 11:13:30;;;;;;;3.93;1.30;;;20.00;99.90;;;;;;5072498;28;20665;-58
2022/05/26 11:18:53;;;;;;;2.13;1.30;;;19.90;99.90;;;;;;5071919;28;20262;-60
2022/05/26 11:21:22;;;;;;;2.00;1.27;;;19.80;99.90;;;;;;5072326;28;20193;-57
2022/05/26 11:23:50;;;;;;;4.47;1.40;;;19.90;99.90;;;;;;5071841;28;20699;-58
2022/05/26 11:26:26;;;;;;;2.47;1.23;;;20.00;99.90;;;;;;5071949;28;20596;-61
2022/05/26 11:28:57;;;;;;;3.13;1.23;;;20.10;99.90;;;;;;5071874;28;20192;-58
2022/05/26 11:37:16;;;;;;;4.03;1.50;;;19.90;99.90;;;;;;5071901;28;20185;-58
2022/05/26 11:39:44;;;;;;;3.43;1.50;;;20.00;99.90;;;;;;5071364;28;20198;-59
2022/05/26 11:42:22;;;;;;;4.40;1.40;;;20.00;99.90;;;;;;5071594;28;20210;-59
2022/05/26 11:44:58;;;;;;;2.30;1.20;;;20.00;99.90;;;;;;5071561;28;20209;-61
2022/05/26 11:47:47;;;;;;;3.37;1.50;;;20.00;99.90;;;;;;5071718;28;20192;-61
2022/05/26 11:50:48;;;;;;;1.10;1.10;;;19.80;99.90;;;;;;5071531;28;20279;-58
2022/05/26 11:53:36;;;;;;;5.57;1.40;;;19.70;99.90;;;;;;5071688;28;20192;-60
2022/05/26 11:56:24;;;;;;;2.63;1.37;;;19.70;99.90;;;;;;5071415;28;20196;-59
2022/05/26 11:59:26;;;;;;;2.03;1.30;;;19.80;99.90;;;;;;5071316;28;20598;-57
2022/05/26 12:02:28;;;;;;;3.27;1.67;;;20.00;99.90;;;;;;5071553;28;20224;-60
2022/05/26 12:04:54;;;;;;;6.17;1.40;;;19.90;99.90;;;;;;5071506;28;20299;-59
2022/05/26 12:07:39;;;;;;;4.20;1.50;;;19.70;99.90;;;;;;5071412;28;20249;-60
2022/05/26 12:10:21;;;;;;;1.63;1.37;;;19.80;99.90;;;;;;5071803;28;20211;-59
2022/05/26 12:12:49;;;;;;;2.60;1.40;;;19.70;99.90;;;;;;5071415;28;20207;-60
2022/05/26 12:15:21;;;;;;;5.90;1.40;;;19.80;99.90;;;;;;5071243;28;20295;-57
2022/05/26 12:17:49;;;;;;;4.67;1.57;;;19.90;99.90;;;;;;5071376;28;20608;-58
2022/05/26 12:20:38;;;;;;;2.30;1.43;;;20.00;99.90;;;;;;5071047;28;20205;-59
2022/05/26 12:23:27;;;;;;;4.50;1.50;;;20.00;99.90;;;;;;5061188;28;20210;-60
2022/05/26 12:26:29;;;;;;;1.87;1.40;;;20.10;99.90;;;;;;5071374;28;20285;-60
2022/05/26 12:29:17;;;;;;;6.60;1.50;;;20.20;99.90;;;;;;5074477;28;20195;-59
2022/05/26 12:32:10;;;;;;;2.30;1.50;;;20.20;99.90;;;;;;5074808;28;20662;-59
2022/05/26 12:34:51;;;;;;;1.87;1.30;;;20.20;99.90;;;;;;5074756;28;20199;-58
2022/05/26 12:37:27;;;;;;;3.47;1.43;;;20.40;99.90;;;;;;5074783;28;20193;-59
2022/05/26 12:40:18;;;;;;;6.53;1.40;;;20.50;99.90;;;;;;5074931;28;20287;-59
2022/05/26 12:42:57;;;;;;;2.90;1.70;;;20.60;98.70;;;;;;5075111;28;20605;-59
2022/05/26 12:45:37;;;;;;;1.87;1.27;;;20.70;99.30;;;;;;5074924;28;20225;-59
2022/05/26 12:48:18;;;;;;;4.10;1.60;;;20.70;99.90;;;;;;5075203;28;20312;-61
2022/05/26 12:50:45;;;;;;;2.93;1.30;;;20.70;99.60;;;;;;5074894;28;20195;-57
2022/05/26 12:53:17;;;;;;;5.80;1.50;;;20.70;99.20;;;;;;5074968;28;20224;-62
2022/05/26 12:55:58;;;;;;;3.37;1.70;;;20.70;98.90;;;;;;5074667;28;20189;-59
2022/05/26 12:58:28;;;;;;;7.67;1.53;;;20.70;99.10;;;;;;5074350;28;20602;-59
2022/05/26 13:01:01;;;;;;;4.60;1.60;;;20.60;98.90;;;;;;5074922;28;20244;-58
2022/05/26 13:03:32;;;;;;;2.37;1.50;;;20.60;99.00;;;;;;5074383;28;20196;-58
2022/05/26 13:06:02;;;;;;;3.50;1.50;;;20.60;98.80;;;;;;5074713;28;20197;-59
2022/05/26 13:08:33;;;;;;;5.83;1.40;;;20.60;99.10;;;;;;5075024;28;20206;-58
2022/05/26 13:11:03;;;;;;;4.57;1.40;;;20.70;98.50;;;;;;5074428;28;20194;-57
2022/05/26 13:13:36;;;;;;;3.33;1.20;;;20.80;97.90;;;;;;5074451;28;20232;-59
2022/05/26 13:16:37;;;;;;;4.10;1.80;;;20.80;98.70;;;;;;5074705;28;20198;-57
2022/05/26 13:19:15;;;;;;;2.63;1.90;;;20.90;98.50;;;;;;5012342;28;20721;-60
2022/05/26 13:21:45;;;;;;;3.17;1.50;;;20.80;98.80;;;;;;5012316;28;20194;-59
2022/05/26 13:24:17;;;;;;;5.57;1.67;;;20.90;99.00;;;;;;5011804;28;20230;-59
2022/05/26 13:26:44;;;;;;;1.63;1.50;;;20.90;98.40;;;;;;5011939;28;20210;-57
2022/05/26 13:29:12;;;;;;;3.87;2.00;;;20.90;98.20;;;;;;5011880;28;20211;-58
2022/05/26 13:34:30;;;;;;;3.10;1.50;;;21.00;98.70;;;;;;5011867;28;20235;-59
2022/05/26 13:36:57;;;;;;;7.57;2.03;;;21.10;98.40;;;;;;5011754;28;20207;-59
2022/05/26 13:39:26;;;;;;;5.93;1.80;;;21.10;98.30;;;;;;5010799;28;20211;-58
2022/05/26 13:41:54;;;;;;;5.43;1.90;;;21.30;98.70;;;;;;5011825;28;20227;-58
2022/05/26 13:44:30;;;;;;;3.07;1.77;;;21.30;98.50;;;;;;5011588;28;20219;-58
2022/05/26 13:46:58;;;;;;;3.90;1.63;;;21.30;98.50;;;;;;5011593;28;20191;-58
2022/05/26 13:49:33;;;;;;;5.00;1.70;;;21.20;97.80;;;;;;5028426;28;20218;-58
2022/05/26 13:52:01;;;;;;;5.17;1.80;;;21.10;97.40;;;;;;5073642;28;20193;-57